createdAt,value
2018-10-07T00:00:31.340Z,10.66
2018-10-07T00:03:00.237Z,10.62
2018-10-07T00:05:29.119Z,10.54
2018-10-07T00:07:57.942Z,10.46
2018-10-07T00:10:26.889Z,10.41
2018-10-07T00:12:55.760Z,10.41
2018-10-07T00:15:24.668Z,10.48
2018-10-07T00:17:53.812Z,10.56
2018-10-07T00:20:22.651Z,10.61
2018-10-07T00:22:51.583Z,10.60
2018-10-07T00:25:20.418Z,10.51
2018-10-07T00:27:49.350Z,10.56
2018-10-07T00:30:18.334Z,10.49
2018-10-07T00:32:47.714Z,10.42
2018-10-07T00:35:16.560Z,10.40
2018-10-07T00:37:45.495Z,10.33
2018-10-07T00:40:14.648Z,10.25
2018-10-07T00:42:43.457Z,10.19
2018-10-07T00:45:12.415Z,10.17
2018-10-07T00:47:41.241Z,10.11
2018-10-07T00:50:10.069Z,10.05
2018-10-07T00:52:39.021Z,10.02
2018-10-07T00:55:08.357Z,9.98
2018-10-07T00:57:37.226Z,9.93
2018-10-07T01:00:07.276Z,9.94
2018-10-07T01:02:36.444Z,9.89
2018-10-07T01:05:05.270Z,9.86
2018-10-07T01:07:34.157Z,9.82
2018-10-07T01:10:03.320Z,9.78
2018-10-07T01:12:32.216Z,9.73
2018-10-07T01:16:30.237Z,9.72
2018-10-07T01:18:58.985Z,9.62
2018-10-07T01:21:27.918Z,9.58
2018-10-07T01:23:56.940Z,9.58
2018-10-07T01:26:25.932Z,9.54
2018-10-07T01:28:54.818Z,9.53
2018-10-07T01:31:23.912Z,9.53
2018-10-07T01:33:52.749Z,9.50
2018-10-07T01:36:22.001Z,9.52
2018-10-07T01:38:51.261Z,9.52
2018-10-07T01:41:20.101Z,9.52
2018-10-07T01:43:48.910Z,9.53
2018-10-07T01:46:18.240Z,9.54
2018-10-07T01:48:47.115Z,9.51
2018-10-07T01:51:16.007Z,9.52
2018-10-07T01:53:45.160Z,9.46
2018-10-07T01:56:13.945Z,9.45
2018-10-07T01:58:42.856Z,9.43
2018-10-07T02:01:11.993Z,9.41
2018-10-07T02:03:40.897Z,9.38
2018-10-07T02:06:09.766Z,9.44
2018-10-07T02:08:38.936Z,9.46
2018-10-07T02:11:08.211Z,9.48
2018-10-07T02:13:36.976Z,9.50
2018-10-07T02:16:06.145Z,9.46
2018-10-07T02:18:35.044Z,9.50
2018-10-07T02:21:03.867Z,9.51
2018-10-07T02:23:32.772Z,9.47
2018-10-07T02:26:01.662Z,9.46
2018-10-07T02:28:30.503Z,9.48
2018-10-07T02:30:59.461Z,9.46
2018-10-07T02:33:28.296Z,9.42
2018-10-07T02:35:57.149Z,9.42
2018-10-07T02:38:26.173Z,9.41
2018-10-07T02:40:55.189Z,9.35
2018-10-07T02:43:24.020Z,9.35
2018-10-07T02:45:52.975Z,9.36
2018-10-07T02:48:21.772Z,9.28
2018-10-07T02:50:50.713Z,9.25
2018-10-07T02:53:19.967Z,9.16
2018-10-07T02:55:49.108Z,9.13
2018-10-07T02:58:18.119Z,9.18
2018-10-07T03:00:47.173Z,9.16
2018-10-07T03:03:16.001Z,9.14
2018-10-07T03:05:44.873Z,9.12
2018-10-07T03:08:14.028Z,9.16
2018-10-07T03:10:42.832Z,9.16
2018-10-07T03:13:11.729Z,9.11
2018-10-07T03:15:40.628Z,9.09
2018-10-07T03:18:09.481Z,9.04
2018-10-07T03:20:38.437Z,9.05
2018-10-07T03:23:07.416Z,9.06
2018-10-07T03:25:36.506Z,9.06
2018-10-07T03:28:05.587Z,9.04
2018-10-07T03:30:34.813Z,9.02
2018-10-07T03:33:03.716Z,8.99
2018-10-07T03:35:32.524Z,9.03
2018-10-07T03:38:01.472Z,8.99
2018-10-07T03:40:30.308Z,8.93
2018-10-07T03:42:59.226Z,8.93
2018-10-07T03:45:28.074Z,8.88
2018-10-07T03:47:57.095Z,8.81
2018-10-07T03:50:26.030Z,8.78
2018-10-07T03:52:55.636Z,8.68
2018-10-07T03:55:24.507Z,8.70
2018-10-07T03:57:53.401Z,8.70
2018-10-07T04:00:22.389Z,8.73
2018-10-07T04:02:51.497Z,8.72
2018-10-07T04:05:20.502Z,8.76
2018-10-07T04:07:49.782Z,8.73
2018-10-07T04:10:18.800Z,8.70
2018-10-07T04:12:47.730Z,8.62
2018-10-07T04:15:16.763Z,8.53
2018-10-07T04:17:45.839Z,8.49
2018-10-07T04:20:14.992Z,8.48
2018-10-07T04:22:45.339Z,8.46
2018-10-07T04:25:14.365Z,8.49
2018-10-07T04:27:43.399Z,8.53
2018-10-07T04:30:12.392Z,8.46
2018-10-07T04:32:41.319Z,8.39
2018-10-07T04:35:10.365Z,8.40
2018-10-07T04:37:39.731Z,8.36
2018-10-07T04:40:08.694Z,8.45
2018-10-07T04:44:06.882Z,8.52
2018-10-07T04:46:35.872Z,8.55
2018-10-07T04:49:05.243Z,8.52
2018-10-07T04:51:34.516Z,8.60
2018-10-07T04:54:03.845Z,8.66
2018-10-07T04:56:33.174Z,8.65
2018-10-07T04:59:02.317Z,8.65
2018-10-07T05:01:31.622Z,8.68
2018-10-07T05:04:00.678Z,8.67
2018-10-07T05:06:33.415Z,8.72
2018-10-07T05:09:05.307Z,8.76
2018-10-07T05:11:34.770Z,8.79
2018-10-07T05:14:05.023Z,8.81
2018-10-07T05:16:40.503Z,8.87
2018-10-07T05:19:09.744Z,8.94
2018-10-07T05:21:38.843Z,8.95
2018-10-07T05:24:07.993Z,9.07
2018-10-07T05:26:37.097Z,9.13
2018-10-07T05:29:06.212Z,9.20
2018-10-07T05:31:35.504Z,9.28
2018-10-07T05:34:04.633Z,9.43
2018-10-07T05:36:33.797Z,9.50
2018-10-07T05:39:03.365Z,9.57
2018-10-07T05:41:32.465Z,9.63
2018-10-07T05:44:01.399Z,9.68
2018-10-07T05:46:30.332Z,9.71
2018-10-07T05:48:59.574Z,9.77
2018-10-07T05:51:28.615Z,9.83
2018-10-07T05:53:57.709Z,9.88
2018-10-07T05:56:26.805Z,9.92
2018-10-07T05:58:57.628Z,9.99
2018-10-07T06:01:41.128Z,10.01
2018-10-07T06:04:18.097Z,10.05
2018-10-07T06:06:47.480Z,10.13
2018-10-07T06:09:20.134Z,10.20
2018-10-07T06:11:49.230Z,10.25
2018-10-07T06:14:30.454Z,10.34
2018-10-07T06:16:59.857Z,10.43
2018-10-07T06:19:29.357Z,10.54
2018-10-07T06:21:58.817Z,10.64
2018-10-07T06:24:27.949Z,10.71
2018-10-07T06:26:56.991Z,10.85
2018-10-07T06:29:27.201Z,10.93
2018-10-07T06:31:56.406Z,11.02
2018-10-07T06:34:26.616Z,11.12
2018-10-07T06:36:55.773Z,11.22
2018-10-07T06:39:25.259Z,11.33
2018-10-07T06:41:54.245Z,11.41
2018-10-07T06:44:23.621Z,11.54
2018-10-07T06:46:52.787Z,11.64
2018-10-07T06:49:21.977Z,11.62
2018-10-07T06:51:51.416Z,11.77
2018-10-07T06:54:20.544Z,11.92
2018-10-07T06:56:50.240Z,12.03
2018-10-07T06:59:19.554Z,12.08
2018-10-07T07:01:48.741Z,12.18
2018-10-07T07:04:17.910Z,12.26
2018-10-07T07:06:46.965Z,12.41
2018-10-07T07:09:16.149Z,12.48
2018-10-07T07:11:45.113Z,12.61
2018-10-07T07:14:14.374Z,12.72
2018-10-07T07:16:43.531Z,12.81
2018-10-07T07:19:12.668Z,12.87
2018-10-07T07:21:41.865Z,12.96
2018-10-07T07:24:10.821Z,13.04
2018-10-07T07:26:39.994Z,13.15
2018-10-07T07:29:09.171Z,13.27
2018-10-07T07:31:38.098Z,13.36
2018-10-07T07:34:07.478Z,13.42
2018-10-07T07:36:37.789Z,13.40
2018-10-07T07:39:07.904Z,13.59
2018-10-07T07:41:37.082Z,13.73
2018-10-07T07:44:06.280Z,13.78
2018-10-07T07:46:35.274Z,13.90
2018-10-07T07:49:04.335Z,13.98
2018-10-07T07:51:33.412Z,13.96
2018-10-07T07:54:02.386Z,14.13
2018-10-07T07:56:31.629Z,14.29
2018-10-07T07:59:00.629Z,14.41
2018-10-07T08:01:29.851Z,14.50
2018-10-07T08:03:59.049Z,14.67
2018-10-07T08:06:28.418Z,14.75
2018-10-07T08:08:57.589Z,14.89
2018-10-07T08:11:27.948Z,14.98
2018-10-07T08:13:56.980Z,14.85
2018-10-07T08:16:26.251Z,14.88
2018-10-07T08:18:55.647Z,15.03
2018-10-07T08:21:24.722Z,15.17
2018-10-07T08:23:53.936Z,15.29
2018-10-07T08:26:22.906Z,15.47
2018-10-07T08:28:52.031Z,15.58
2018-10-07T08:31:21.114Z,15.65
2018-10-07T08:33:50.607Z,15.65
2018-10-07T08:36:19.610Z,15.70
2018-10-07T08:38:48.616Z,15.84
2018-10-07T08:41:17.737Z,15.97
2018-10-07T08:43:46.754Z,16.05
2018-10-07T08:46:15.848Z,16.09
2018-10-07T08:48:44.895Z,16.13
2018-10-07T08:51:14.066Z,16.14
2018-10-07T08:53:42.992Z,16.15
2018-10-07T08:56:12.296Z,16.01
2018-10-07T08:58:41.331Z,16.11
2018-10-07T09:01:10.402Z,16.24
2018-10-07T09:03:39.412Z,16.19
2018-10-07T09:06:08.521Z,16.47
2018-10-07T09:08:37.518Z,16.69
2018-10-07T09:11:06.628Z,16.88
2018-10-07T09:13:35.685Z,16.91
2018-10-07T09:16:05.165Z,16.73
2018-10-07T09:18:34.445Z,16.96
2018-10-07T09:21:03.750Z,17.14
2018-10-07T09:23:33.223Z,17.40
2018-10-07T09:26:02.712Z,17.45
2018-10-07T09:28:32.083Z,17.53
2018-10-07T09:31:01.052Z,17.50
2018-10-07T09:33:30.048Z,17.62
2018-10-07T09:35:59.158Z,17.74
2018-10-07T09:38:28.141Z,17.73
2018-10-07T09:40:57.342Z,17.41
2018-10-07T09:43:26.530Z,17.25
2018-10-07T09:45:55.701Z,17.43
2018-10-07T09:48:24.954Z,17.32
2018-10-07T09:50:54.107Z,17.25
2018-10-07T09:53:23.157Z,17.39
2018-10-07T09:55:52.331Z,17.51
2018-10-07T09:58:21.444Z,17.68
2018-10-07T10:00:50.448Z,17.81
2018-10-07T10:03:20.030Z,17.82
2018-10-07T10:05:48.987Z,17.96
2018-10-07T10:08:18.048Z,18.16
2018-10-07T10:10:47.090Z,18.14
2018-10-07T10:13:16.144Z,17.86
2018-10-07T10:15:45.324Z,17.89
2018-10-07T10:18:23.962Z,17.94
2018-10-07T10:21:01.490Z,17.99
2018-10-07T10:24:43.504Z,17.84
2018-10-07T10:27:38.053Z,17.96
2018-10-07T10:30:43.588Z,17.83
2018-10-07T10:33:26.384Z,18.06
2018-10-07T10:36:06.709Z,18.24
2018-10-07T10:38:50.743Z,18.40
2018-10-07T10:41:26.376Z,18.29
2018-10-07T10:43:58.929Z,18.39
2018-10-07T10:46:42.532Z,18.26
2018-10-07T10:49:20.435Z,18.15
2018-10-07T10:52:00.460Z,18.27
2018-10-07T10:54:40.160Z,18.38
2018-10-07T10:57:15.272Z,18.58
2018-10-07T11:00:05.757Z,18.67
2018-10-07T11:03:47.657Z,18.79
2018-10-07T11:06:21.844Z,18.89
2018-10-07T11:09:01.433Z,18.92
2018-10-07T11:11:42.390Z,18.81
2018-10-07T11:15:19.399Z,18.84
2018-10-07T11:20:03.404Z,18.90
2018-10-07T11:24:46.367Z,18.82
2018-10-07T11:27:53.453Z,19.00
2018-10-07T11:30:39.185Z,19.08
2018-10-07T11:34:12.061Z,19.22
2018-10-07T11:38:53.930Z,19.17
2018-10-07T11:43:33.363Z,19.15
2018-10-07T11:46:40.874Z,19.13
2018-10-07T11:49:13.304Z,19.29
2018-10-07T11:52:52.455Z,19.43
2018-10-07T11:55:21.304Z,19.54
2018-10-07T11:57:50.105Z,19.56
2018-10-07T12:00:19.497Z,19.43
2018-10-07T12:02:48.694Z,19.49
2018-10-07T12:05:17.473Z,19.45
2018-10-07T12:07:47.131Z,19.50
2018-10-07T12:10:16.094Z,19.56
2018-10-07T12:12:45.014Z,19.60
2018-10-07T12:15:14.236Z,19.68
2018-10-07T12:17:43.172Z,19.73
2018-10-07T12:20:12.392Z,19.87
2018-10-07T12:22:41.410Z,19.86
2018-10-07T12:25:10.403Z,19.90
2018-10-07T12:27:39.428Z,19.99
2018-10-07T12:30:08.754Z,19.99
2018-10-07T12:32:37.698Z,19.85
2018-10-07T12:35:06.615Z,19.82
2018-10-07T12:37:35.866Z,19.85
2018-10-07T12:40:04.883Z,19.86
2018-10-07T12:42:34.031Z,19.87
2018-10-07T12:45:03.402Z,19.82
2018-10-07T12:47:32.551Z,19.92
2018-10-07T12:50:01.600Z,19.87
2018-10-07T12:52:31.013Z,19.97
2018-10-07T12:54:59.987Z,19.99
2018-10-07T12:57:30.120Z,20.01
2018-10-07T12:59:59.709Z,20.06
2018-10-07T13:02:28.790Z,20.08
2018-10-07T13:04:57.808Z,20.12
2018-10-07T13:07:28.022Z,20.09
2018-10-07T13:09:56.969Z,20.09
2018-10-07T13:12:26.187Z,20.05
2018-10-07T13:14:55.220Z,20.04
2018-10-07T13:17:24.253Z,20.03
2018-10-07T13:19:53.434Z,20.14
2018-10-07T13:22:22.448Z,20.14
2018-10-07T13:24:51.635Z,20.15
2018-10-07T13:27:20.653Z,20.17
2018-10-07T13:29:49.653Z,20.17
2018-10-07T13:32:18.631Z,20.17
2018-10-07T13:34:47.657Z,20.21
2018-10-07T13:37:16.760Z,20.27
2018-10-07T13:39:45.581Z,20.23
2018-10-07T13:42:14.656Z,20.34
2018-10-07T13:44:44.216Z,20.30
2018-10-07T13:47:13.117Z,20.30
2018-10-07T13:49:42.353Z,20.23
2018-10-07T13:52:11.870Z,20.20
2018-10-07T13:54:40.915Z,20.14
2018-10-07T13:57:10.041Z,20.16
2018-10-07T13:59:39.117Z,20.31
2018-10-07T14:02:08.139Z,20.25
2018-10-07T14:04:37.213Z,20.30
2018-10-07T14:07:06.817Z,20.27
2018-10-07T14:09:35.912Z,20.16
2018-10-07T14:12:04.914Z,20.11
2018-10-07T14:14:34.002Z,20.08
2018-10-07T14:17:03.179Z,20.02
2018-10-07T14:19:32.384Z,20.02
2018-10-07T14:22:01.510Z,20.05
2018-10-07T14:24:30.609Z,20.04
2018-10-07T14:26:59.644Z,20.06
2018-10-07T14:29:28.842Z,20.09
2018-10-07T14:31:57.869Z,20.05
2018-10-07T14:34:27.063Z,20.10
2018-10-07T14:36:56.572Z,20.09
2018-10-07T14:39:25.539Z,20.07
2018-10-07T14:41:54.751Z,20.03
2018-10-07T14:44:24.267Z,20.02
2018-10-07T14:46:53.352Z,19.89
2018-10-07T14:49:22.393Z,19.77
2018-10-07T14:51:51.753Z,19.70
2018-10-07T14:54:20.748Z,19.77
2018-10-07T14:56:51.012Z,19.76
2018-10-07T14:59:20.524Z,19.83
2018-10-07T15:01:49.642Z,19.93
2018-10-07T15:04:18.898Z,19.88
2018-10-07T15:06:48.096Z,19.84
2018-10-07T15:09:17.165Z,19.76
2018-10-07T15:11:46.273Z,19.68
2018-10-07T15:14:15.273Z,19.54
2018-10-07T15:16:44.328Z,19.52
2018-10-07T15:19:13.316Z,19.54
2018-10-07T15:21:42.306Z,19.53
2018-10-07T15:24:11.251Z,19.47
2018-10-07T15:26:40.361Z,19.42
2018-10-07T15:29:10.180Z,19.36
2018-10-07T15:31:39.135Z,19.36
2018-10-07T15:34:08.278Z,19.40
2018-10-07T15:36:37.411Z,19.33
2018-10-07T15:39:07.732Z,19.23
2018-10-07T15:41:36.894Z,19.13
2018-10-07T15:44:06.117Z,19.07
2018-10-07T15:46:35.045Z,19.05
2018-10-07T15:49:03.922Z,19.10
2018-10-07T15:51:32.853Z,19.09
2018-10-07T15:54:01.840Z,19.05
2018-10-07T15:56:31.031Z,19.03
2018-10-07T15:59:00.332Z,19.00
2018-10-07T16:01:29.245Z,18.93
2018-10-07T16:03:58.173Z,18.82
2018-10-07T16:06:27.608Z,18.82
2018-10-07T16:08:56.660Z,18.83
2018-10-07T16:11:26.215Z,18.82
2018-10-07T16:13:55.326Z,18.75
2018-10-07T16:16:24.915Z,18.57
2018-10-07T16:18:53.968Z,18.31
2018-10-07T16:21:23.068Z,18.09
2018-10-07T16:23:52.337Z,17.85
2018-10-07T16:26:21.650Z,17.64
2018-10-07T16:28:50.461Z,17.52
2018-10-07T16:31:19.484Z,17.38
2018-10-07T16:33:48.889Z,17.23
2018-10-07T16:36:17.973Z,17.19
2018-10-07T16:38:46.959Z,17.04
2018-10-07T16:41:16.134Z,16.92
2018-10-07T16:43:45.192Z,16.82
2018-10-07T16:46:14.142Z,16.73
2018-10-07T16:48:43.342Z,16.65
2018-10-07T16:51:12.515Z,16.58
2018-10-07T16:53:41.439Z,16.48
2018-10-07T16:56:11.769Z,16.46
2018-10-07T16:58:40.801Z,16.51
2018-10-07T17:01:09.865Z,16.57
2018-10-07T17:03:39.585Z,16.65
2018-10-07T17:06:09.509Z,16.67
2018-10-07T17:08:38.371Z,16.52
2018-10-07T17:11:08.084Z,16.51
2018-10-07T17:13:37.475Z,16.56
2018-10-07T17:16:06.536Z,16.53
2018-10-07T17:18:35.582Z,16.33
2018-10-07T17:21:04.782Z,16.39
2018-10-07T17:23:33.966Z,16.36
2018-10-07T17:26:03.237Z,16.31
2018-10-07T17:28:32.249Z,16.12
2018-10-07T17:31:01.462Z,15.97
2018-10-07T17:33:30.566Z,15.95
2018-10-07T17:35:59.473Z,16.03
2018-10-07T17:38:28.388Z,15.94
2018-10-07T17:40:57.849Z,15.89
2018-10-07T17:43:26.768Z,15.87
2018-10-07T17:45:55.819Z,15.81
2018-10-07T17:48:25.416Z,15.76
2018-10-07T17:50:54.647Z,15.65
2018-10-07T17:53:23.984Z,15.68
2018-10-07T17:55:53.228Z,15.66
2018-10-07T17:58:22.165Z,15.61
2018-10-07T18:00:51.173Z,15.43
2018-10-07T18:03:20.294Z,15.46
2018-10-07T18:05:49.251Z,15.44
2018-10-07T18:08:18.339Z,15.46
2018-10-07T18:10:47.393Z,15.34
2018-10-07T18:13:16.851Z,15.34
2018-10-07T18:15:45.882Z,15.33
2018-10-07T18:18:14.931Z,15.27
2018-10-07T18:20:44.333Z,15.15
2018-10-07T18:23:13.472Z,15.08
2018-10-07T18:25:42.804Z,15.04
2018-10-07T18:28:11.841Z,15.03
2018-10-07T18:30:40.731Z,14.94
2018-10-07T18:33:10.124Z,14.85
2018-10-07T18:35:39.100Z,14.89
2018-10-07T18:38:08.245Z,14.86
2018-10-07T18:40:37.297Z,14.81
2018-10-07T18:43:06.375Z,14.68
2018-10-07T18:45:35.273Z,14.69
2018-10-07T18:48:04.360Z,14.70
2018-10-07T18:50:33.624Z,14.70
2018-10-07T18:53:02.856Z,14.62
2018-10-07T18:55:31.853Z,14.59
2018-10-07T18:58:01.325Z,14.62
2018-10-07T19:00:30.439Z,14.63
2018-10-07T19:02:59.964Z,14.63
2018-10-07T19:05:29.004Z,14.55
2018-10-07T19:07:58.041Z,14.60
2018-10-07T19:10:27.368Z,14.63
2018-10-07T19:12:56.432Z,14.67
2018-10-07T19:15:25.387Z,14.61
2018-10-07T19:17:54.895Z,14.64
2018-10-07T19:20:24.129Z,14.69
2018-10-07T19:22:53.352Z,14.67
2018-10-07T19:25:22.827Z,14.62
2018-10-07T19:27:51.832Z,14.54
2018-10-07T19:30:20.788Z,14.45
2018-10-07T19:32:50.392Z,14.38
2018-10-07T19:35:19.249Z,14.28
2018-10-07T19:37:48.188Z,14.29
2018-10-07T19:40:17.213Z,14.30
2018-10-07T19:42:46.298Z,14.32
2018-10-07T19:45:15.376Z,14.28
2018-10-07T19:47:44.475Z,14.30
2018-10-07T19:50:13.432Z,14.29
2018-10-07T19:52:42.449Z,14.25
2018-10-07T19:55:11.573Z,14.23
2018-10-07T19:57:40.575Z,14.21
2018-10-07T20:00:09.814Z,14.13
2018-10-07T20:02:38.880Z,14.08
2018-10-07T20:05:07.802Z,14.02
2018-10-07T20:07:36.946Z,13.97
2018-10-07T20:10:06.190Z,13.88
2018-10-07T20:12:35.217Z,13.92
2018-10-07T20:15:04.745Z,13.95
2018-10-07T20:17:34.011Z,13.99
2018-10-07T20:20:02.947Z,13.90
2018-10-07T20:22:31.955Z,13.87
2018-10-07T20:25:01.116Z,13.87
2018-10-07T20:27:30.139Z,13.88
2018-10-07T20:29:59.198Z,13.87
2018-10-07T20:32:28.645Z,13.77
2018-10-07T20:34:57.534Z,13.64
2018-10-07T20:37:26.667Z,13.57
2018-10-07T20:39:55.992Z,13.50
2018-10-07T20:42:25.195Z,13.40
2018-10-07T20:44:54.204Z,13.37
2018-10-07T20:47:23.439Z,13.35
2018-10-07T20:49:52.600Z,13.33
2018-10-07T20:52:21.593Z,13.22
2018-10-07T20:54:50.657Z,13.18
2018-10-07T20:57:19.599Z,13.14
2018-10-07T20:59:48.456Z,12.96
2018-10-07T21:02:17.602Z,12.83
2018-10-07T21:04:46.868Z,12.87
2018-10-07T21:07:15.942Z,12.79
2018-10-07T21:09:45.323Z,12.70
2018-10-07T21:12:14.389Z,12.61
2018-10-07T21:14:43.570Z,12.54
2018-10-07T21:17:12.941Z,12.49
2018-10-07T21:19:42.039Z,12.44
2018-10-07T21:22:11.000Z,12.40
2018-10-07T21:24:40.476Z,12.41
2018-10-07T21:27:09.508Z,12.36
2018-10-07T21:29:38.766Z,12.29
2018-10-07T21:32:07.852Z,12.24
2018-10-07T21:34:36.937Z,12.23
2018-10-07T21:37:06.280Z,12.23
2018-10-07T21:39:35.829Z,12.28
2018-10-07T21:42:04.897Z,12.30
2018-10-07T21:44:33.900Z,12.30
2018-10-07T21:47:03.205Z,12.25
2018-10-07T21:49:32.294Z,12.25
2018-10-07T21:52:01.238Z,12.29
2018-10-07T21:54:30.530Z,12.35
2018-10-07T21:56:59.722Z,12.26
2018-10-07T21:59:28.891Z,12.14
2018-10-07T22:01:58.192Z,12.08
2018-10-07T22:04:27.225Z,12.04
2018-10-07T22:06:56.444Z,11.99
2018-10-07T22:09:25.874Z,11.94
2018-10-07T22:11:54.988Z,11.87
2018-10-07T22:14:24.003Z,11.82
2018-10-07T22:16:53.086Z,11.75
2018-10-07T22:19:22.201Z,11.73
2018-10-07T22:21:52.231Z,11.69
2018-10-07T22:24:21.309Z,11.76
2018-10-07T22:26:50.304Z,11.74
2018-10-07T22:29:19.397Z,11.69
2018-10-07T22:31:48.795Z,11.68
2018-10-07T22:34:18.108Z,11.69
2018-10-07T22:36:47.213Z,11.69
2018-10-07T22:39:16.622Z,11.71
2018-10-07T22:41:45.769Z,11.72
2018-10-07T22:44:14.823Z,11.75
2018-10-07T22:46:44.611Z,11.74
2018-10-07T22:49:13.774Z,11.77
2018-10-07T22:51:42.806Z,11.65
2018-10-07T22:54:12.213Z,11.56
2018-10-07T22:56:41.141Z,11.44
2018-10-07T22:59:10.076Z,11.39
2018-10-07T23:01:39.150Z,11.34
2018-10-07T23:04:08.336Z,11.28
2018-10-07T23:06:37.431Z,11.24
2018-10-07T23:09:10.062Z,11.27
2018-10-07T23:11:38.989Z,11.34
2018-10-07T23:14:08.333Z,11.40
2018-10-07T23:16:37.753Z,11.30
2018-10-07T23:19:06.832Z,11.28
2018-10-07T23:21:35.870Z,11.27
2018-10-07T23:24:05.424Z,11.36
2018-10-07T23:26:34.403Z,11.28
2018-10-07T23:29:03.508Z,11.18
2018-10-07T23:31:32.888Z,11.22
2018-10-07T23:34:01.745Z,11.32
2018-10-07T23:36:30.874Z,11.32
2018-10-07T23:39:00.369Z,11.18
2018-10-07T23:41:29.467Z,11.09
2018-10-07T23:43:58.499Z,11.05
2018-10-07T23:46:27.874Z,10.94
2018-10-07T23:48:56.853Z,10.89
2018-10-07T23:51:25.974Z,10.84
2018-10-07T23:53:55.311Z,10.84
2018-10-07T23:56:24.330Z,10.82
2018-10-07T23:58:53.405Z,10.78
